sensor_id;sensor_type;location;lat;lon;timestamp;P1;durP1;ratioP1;P2;durP2;ratioP2
23390;SDS011;11868;45.606;5.302;2023-04-15T00:01:19;12.30;;;9.27;;
23390;SDS011;11868;45.606;5.302;2023-04-15T00:03:45;12.95;;;10.27;;
23390;SDS011;11868;45.606;5.302;2023-04-15T00:06:11;15.32;;;10.25;;
23390;SDS011;11868;45.606;5.302;2023-04-15T00:08:37;11.75;;;7.70;;
23390;SDS011;11868;45.606;5.302;2023-04-15T00:11:03;7.60;;;4.50;;
23390;SDS011;11868;45.606;5.302;2023-04-15T00:13:30;6.55;;;4.10;;
23390;SDS011;11868;45.606;5.302;2023-04-15T00:15:58;4.25;;;2.60;;
23390;SDS011;11868;45.606;5.302;2023-04-15T00:18:24;8.77;;;4.15;;
23390;SDS011;11868;45.606;5.302;2023-04-15T00:20:50;10.10;;;5.15;;
23390;SDS011;11868;45.606;5.302;2023-04-15T00:23:16;6.82;;;3.95;;
23390;SDS011;11868;45.606;5.302;2023-04-15T00:25:42;7.32;;;3.10;;
23390;SDS011;11868;45.606;5.302;2023-04-15T00:28:07;2.67;;;1.33;;
23390;SDS011;11868;45.606;5.302;2023-04-15T00:30:32;2.08;;;1.20;;
23390;SDS011;11868;45.606;5.302;2023-04-15T00:32:58;3.40;;;1.40;;
23390;SDS011;11868;45.606;5.302;2023-04-15T00:35:26;2.38;;;1.20;;
23390;SDS011;11868;45.606;5.302;2023-04-15T00:37:51;3.35;;;1.40;;
23390;SDS011;11868;45.606;5.302;2023-04-15T00:40:17;3.78;;;2.15;;
23390;SDS011;11868;45.606;5.302;2023-04-15T00:42:43;6.28;;;3.65;;
23390;SDS011;11868;45.606;5.302;2023-04-15T00:45:09;6.88;;;4.38;;
23390;SDS011;11868;45.606;5.302;2023-04-15T00:47:35;9.60;;;4.60;;
23390;SDS011;11868;45.606;5.302;2023-04-15T00:50:02;6.78;;;3.70;;
23390;SDS011;11868;45.606;5.302;2023-04-15T00:52:27;6.43;;;3.88;;
23390;SDS011;11868;45.606;5.302;2023-04-15T00:54:52;9.30;;;4.78;;
23390;SDS011;11868;45.606;5.302;2023-04-15T00:57:20;7.85;;;4.65;;
23390;SDS011;11868;45.606;5.302;2023-04-15T00:59:46;6.97;;;4.35;;
23390;SDS011;11868;45.606;5.302;2023-04-15T01:02:11;5.15;;;3.20;;
23390;SDS011;11868;45.606;5.302;2023-04-15T01:04:37;4.55;;;2.38;;
23390;SDS011;11868;45.606;5.302;2023-04-15T01:07:02;3.97;;;1.40;;
23390;SDS011;11868;45.606;5.302;2023-04-15T01:09:28;6.57;;;3.38;;
23390;SDS011;11868;45.606;5.302;2023-04-15T01:11:53;5.85;;;2.65;;
23390;SDS011;11868;45.606;5.302;2023-04-15T01:14:19;8.27;;;3.15;;
23390;SDS011;11868;45.606;5.302;2023-04-15T01:16:45;4.65;;;3.00;;
23390;SDS011;11868;45.606;5.302;2023-04-15T01:19:10;5.82;;;2.65;;
23390;SDS011;11868;45.606;5.302;2023-04-15T01:21:37;4.53;;;2.33;;
23390;SDS011;11868;45.606;5.302;2023-04-15T01:24:05;4.32;;;2.60;;
23390;SDS011;11868;45.606;5.302;2023-04-15T01:26:33;2.85;;;1.85;;
23390;SDS011;11868;45.606;5.302;2023-04-15T01:31:28;3.05;;;1.60;;
23390;SDS011;11868;45.606;5.302;2023-04-15T01:33:53;3.10;;;2.00;;
23390;SDS011;11868;45.606;5.302;2023-04-15T01:36:19;3.10;;;1.70;;
23390;SDS011;11868;45.606;5.302;2023-04-15T01:38:44;3.92;;;1.48;;
23390;SDS011;11868;45.606;5.302;2023-04-15T01:41:10;2.30;;;1.70;;
23390;SDS011;11868;45.606;5.302;2023-04-15T01:43:35;2.72;;;1.63;;
23390;SDS011;11868;45.606;5.302;2023-04-15T01:46:01;2.95;;;1.90;;
23390;SDS011;11868;45.606;5.302;2023-04-15T01:48:27;4.78;;;1.85;;
23390;SDS011;11868;45.606;5.302;2023-04-15T01:50:53;4.93;;;1.80;;
23390;SDS011;11868;45.606;5.302;2023-04-15T01:53:19;3.67;;;1.95;;
23390;SDS011;11868;45.606;5.302;2023-04-15T01:55:44;5.13;;;2.42;;
23390;SDS011;11868;45.606;5.302;2023-04-15T01:58:10;4.95;;;2.67;;
23390;SDS011;11868;45.606;5.302;2023-04-15T02:00:35;5.47;;;2.70;;
23390;SDS011;11868;45.606;5.302;2023-04-15T02:03:00;4.53;;;2.40;;
23390;SDS011;11868;45.606;5.302;2023-04-15T02:05:26;4.82;;;2.72;;
23390;SDS011;11868;45.606;5.302;2023-04-15T02:07:51;3.75;;;2.67;;
23390;SDS011;11868;45.606;5.302;2023-04-15T02:10:17;5.28;;;1.50;;
23390;SDS011;11868;45.606;5.302;2023-04-15T02:12:43;3.63;;;1.58;;
23390;SDS011;11868;45.606;5.302;2023-04-15T02:15:08;4.20;;;1.98;;
23390;SDS011;11868;45.606;5.302;2023-04-15T02:17:34;6.43;;;3.08;;
23390;SDS011;11868;45.606;5.302;2023-04-15T02:20:01;5.45;;;2.20;;
23390;SDS011;11868;45.606;5.302;2023-04-15T02:22:28;4.95;;;2.58;;
23390;SDS011;11868;45.606;5.302;2023-04-15T02:24:54;10.77;;;4.30;;
23390;SDS011;11868;45.606;5.302;2023-04-15T02:27:19;7.18;;;2.70;;
23390;SDS011;11868;45.606;5.302;2023-04-15T02:29:46;4.43;;;1.85;;
23390;SDS011;11868;45.606;5.302;2023-04-15T02:32:12;2.83;;;2.00;;
23390;SDS011;11868;45.606;5.302;2023-04-15T02:34:38;5.72;;;3.08;;
23390;SDS011;11868;45.606;5.302;2023-04-15T02:37:06;4.05;;;1.70;;
23390;SDS011;11868;45.606;5.302;2023-04-15T02:39:32;3.03;;;1.60;;
23390;SDS011;11868;45.606;5.302;2023-04-15T02:41:57;2.47;;;1.50;;
23390;SDS011;11868;45.606;5.302;2023-04-15T02:44:24;2.20;;;1.40;;
23390;SDS011;11868;45.606;5.302;2023-04-15T02:46:50;2.33;;;1.23;;
23390;SDS011;11868;45.606;5.302;2023-04-15T02:49:16;5.70;;;1.23;;
23390;SDS011;11868;45.606;5.302;2023-04-15T02:51:42;2.00;;;1.33;;
23390;SDS011;11868;45.606;5.302;2023-04-15T02:54:11;5.63;;;1.20;;
23390;SDS011;11868;45.606;5.302;2023-04-15T02:56:37;2.03;;;1.10;;
23390;SDS011;11868;45.606;5.302;2023-04-15T02:59:02;2.97;;;0.93;;
23390;SDS011;11868;45.606;5.302;2023-04-15T03:01:28;3.17;;;1.20;;
23390;SDS011;11868;45.606;5.302;2023-04-15T03:03:54;2.90;;;1.17;;
23390;SDS011;11868;45.606;5.302;2023-04-15T03:06:19;2.10;;;1.00;;
23390;SDS011;11868;45.606;5.302;2023-04-15T03:08:45;2.63;;;1.10;;
23390;SDS011;11868;45.606;5.302;2023-04-15T03:11:10;2.45;;;1.23;;
23390;SDS011;11868;45.606;5.302;2023-04-15T03:13:36;2.90;;;1.40;;
23390;SDS011;11868;45.606;5.302;2023-04-15T03:16:03;2.38;;;1.42;;
23390;SDS011;11868;45.606;5.302;2023-04-15T03:18:29;3.67;;;1.30;;
23390;SDS011;11868;45.606;5.302;2023-04-15T03:20:55;2.25;;;1.13;;
23390;SDS011;11868;45.606;5.302;2023-04-15T03:23:20;1.67;;;1.30;;
23390;SDS011;11868;45.606;5.302;2023-04-15T03:25:45;3.92;;;1.10;;
23390;SDS011;11868;45.606;5.302;2023-04-15T03:28:11;2.72;;;1.20;;
23390;SDS011;11868;45.606;5.302;2023-04-15T03:30:36;3.63;;;1.40;;
23390;SDS011;11868;45.606;5.302;2023-04-15T03:33:02;3.53;;;1.73;;
23390;SDS011;11868;45.606;5.302;2023-04-15T03:35:27;2.67;;;1.40;;
23390;SDS011;11868;45.606;5.302;2023-04-15T03:37:52;2.53;;;1.25;;
23390;SDS011;11868;45.606;5.302;2023-04-15T03:40:19;1.73;;;1.20;;
23390;SDS011;11868;45.606;5.302;2023-04-15T03:42:45;3.72;;;1.05;;
23390;SDS011;11868;45.606;5.302;2023-04-15T03:45:10;2.50;;;1.10;;
23390;SDS011;11868;45.606;5.302;2023-04-15T03:47:36;3.17;;;1.52;;
23390;SDS011;11868;45.606;5.302;2023-04-15T03:50:01;6.45;;;3.03;;
23390;SDS011;11868;45.606;5.302;2023-04-15T03:52:27;6.93;;;4.28;;
23390;SDS011;11868;45.606;5.302;2023-04-15T03:54:52;4.93;;;2.03;;
23390;SDS011;11868;45.606;5.302;2023-04-15T03:57:18;2.58;;;1.40;;
23390;SDS011;11868;45.606;5.302;2023-04-15T03:59:43;3.42;;;1.40;;
23390;SDS011;11868;45.606;5.302;2023-04-15T04:02:08;1.67;;;1.05;;
23390;SDS011;11868;45.606;5.302;2023-04-15T04:04:34;1.20;;;1.10;;
23390;SDS011;11868;45.606;5.302;2023-04-15T04:06:59;3.08;;;1.30;;
23390;SDS011;11868;45.606;5.302;2023-04-15T04:09:25;2.85;;;1.20;;
23390;SDS011;11868;45.606;5.302;2023-04-15T04:11:50;4.18;;;1.42;;
23390;SDS011;11868;45.606;5.302;2023-04-15T04:14:15;2.53;;;1.30;;
23390;SDS011;11868;45.606;5.302;2023-04-15T04:16:41;2.58;;;1.33;;
23390;SDS011;11868;45.606;5.302;2023-04-15T04:19:06;2.60;;;1.20;;
23390;SDS011;11868;45.606;5.302;2023-04-15T04:21:31;1.95;;;1.23;;
23390;SDS011;11868;45.606;5.302;2023-04-15T04:23:58;3.53;;;1.42;;
23390;SDS011;11868;45.606;5.302;2023-04-15T04:26:23;4.80;;;1.38;;
23390;SDS011;11868;45.606;5.302;2023-04-15T04:28:49;2.35;;;0.95;;
23390;SDS011;11868;45.606;5.302;2023-04-15T04:31:14;1.70;;;1.00;;
23390;SDS011;11868;45.606;5.302;2023-04-15T04:33:40;2.17;;;1.10;;
23390;SDS011;11868;45.606;5.302;2023-04-15T04:36:05;1.40;;;0.90;;
23390;SDS011;11868;45.606;5.302;2023-04-15T04:38:31;2.45;;;1.30;;
23390;SDS011;11868;45.606;5.302;2023-04-15T04:40:56;4.18;;;2.30;;
23390;SDS011;11868;45.606;5.302;2023-04-15T04:43:22;2.75;;;1.83;;
23390;SDS011;11868;45.606;5.302;2023-04-15T04:45:47;1.42;;;1.27;;
23390;SDS011;11868;45.606;5.302;2023-04-15T04:48:12;1.83;;;1.55;;
23390;SDS011;11868;45.606;5.302;2023-04-15T04:50:38;4.15;;;1.23;;
23390;SDS011;11868;45.606;5.302;2023-04-15T04:53:03;1.58;;;1.40;;
23390;SDS011;11868;45.606;5.302;2023-04-15T04:55:29;4.93;;;1.80;;
23390;SDS011;11868;45.606;5.302;2023-04-15T04:57:55;4.50;;;1.70;;
23390;SDS011;11868;45.606;5.302;2023-04-15T05:00:21;3.38;;;2.03;;
23390;SDS011;11868;45.606;5.302;2023-04-15T05:02:46;1.63;;;1.50;;
23390;SDS011;11868;45.606;5.302;2023-04-15T05:05:12;2.38;;;1.08;;
23390;SDS011;11868;45.606;5.302;2023-04-15T05:07:37;4.35;;;1.13;;
23390;SDS011;11868;45.606;5.302;2023-04-15T05:10:03;1.38;;;0.88;;
23390;SDS011;11868;45.606;5.302;2023-04-15T05:12:30;0.98;;;0.75;;
23390;SDS011;11868;45.606;5.302;2023-04-15T05:14:55;4.07;;;0.90;;
23390;SDS011;11868;45.606;5.302;2023-04-15T05:17:20;2.50;;;0.90;;
23390;SDS011;11868;45.606;5.302;2023-04-15T05:19:46;3.60;;;1.02;;
23390;SDS011;11868;45.606;5.302;2023-04-15T05:22:11;4.43;;;0.80;;
23390;SDS011;11868;45.606;5.302;2023-04-15T05:24:37;2.97;;;1.10;;
23390;SDS011;11868;45.606;5.302;2023-04-15T05:27:02;0.77;;;0.70;;
23390;SDS011;11868;45.606;5.302;2023-04-15T05:29:28;2.85;;;0.88;;
23390;SDS011;11868;45.606;5.302;2023-04-15T05:31:53;2.15;;;0.82;;
23390;SDS011;11868;45.606;5.302;2023-04-15T05:34:18;2.72;;;0.90;;
23390;SDS011;11868;45.606;5.302;2023-04-15T05:36:44;0.57;;;0.57;;
23390;SDS011;11868;45.606;5.302;2023-04-15T05:39:09;2.05;;;0.80;;
23390;SDS011;11868;45.606;5.302;2023-04-15T05:41:35;1.55;;;0.95;;
23390;SDS011;11868;45.606;5.302;2023-04-15T05:44:00;5.28;;;1.48;;
23390;SDS011;11868;45.606;5.302;2023-04-15T05:46:26;2.13;;;1.08;;
23390;SDS011;11868;45.606;5.302;2023-04-15T05:48:51;2.63;;;1.13;;
23390;SDS011;11868;45.606;5.302;2023-04-15T05:51:16;3.55;;;1.60;;
23390;SDS011;11868;45.606;5.302;2023-04-15T05:53:42;5.50;;;1.40;;
23390;SDS011;11868;45.606;5.302;2023-04-15T05:56:08;2.80;;;1.30;;
23390;SDS011;11868;45.606;5.302;2023-04-15T05:58:34;3.35;;;1.10;;
23390;SDS011;11868;45.606;5.302;2023-04-15T06:00:59;4.03;;;1.00;;
23390;SDS011;11868;45.606;5.302;2023-04-15T06:03:25;2.83;;;1.27;;
23390;SDS011;11868;45.606;5.302;2023-04-15T06:05:50;3.75;;;1.60;;
23390;SDS011;11868;45.606;5.302;2023-04-15T06:08:15;4.22;;;1.90;;
23390;SDS011;11868;45.606;5.302;2023-04-15T06:10:41;2.30;;;1.20;;
23390;SDS011;11868;45.606;5.302;2023-04-15T06:13:06;5.18;;;2.05;;
23390;SDS011;11868;45.606;5.302;2023-04-15T06:15:32;4.20;;;1.80;;
23390;SDS011;11868;45.606;5.302;2023-04-15T06:17:57;4.95;;;1.30;;
23390;SDS011;11868;45.606;5.302;2023-04-15T06:20:23;2.00;;;1.10;;
23390;SDS011;11868;45.606;5.302;2023-04-15T06:22:48;1.50;;;1.08;;
23390;SDS011;11868;45.606;5.302;2023-04-15T06:25:14;1.38;;;1.17;;
23390;SDS011;11868;45.606;5.302;2023-04-15T06:27:39;2.50;;;1.33;;
23390;SDS011;11868;45.606;5.302;2023-04-15T06:30:05;3.50;;;1.23;;
23390;SDS011;11868;45.606;5.302;2023-04-15T06:32:34;3.22;;;1.30;;
23390;SDS011;11868;45.606;5.302;2023-04-15T06:35:00;2.90;;;1.40;;
23390;SDS011;11868;45.606;5.302;2023-04-15T06:37:25;2.55;;;1.50;;
23390;SDS011;11868;45.606;5.302;2023-04-15T06:39:51;1.75;;;1.20;;
23390;SDS011;11868;45.606;5.302;2023-04-15T06:42:16;1.83;;;1.20;;
23390;SDS011;11868;45.606;5.302;2023-04-15T06:44:42;3.08;;;1.60;;
23390;SDS011;11868;45.606;5.302;2023-04-15T06:47:07;2.72;;;1.40;;
23390;SDS011;11868;45.606;5.302;2023-04-15T06:49:33;1.10;;;1.00;;
23390;SDS011;11868;45.606;5.302;2023-04-15T06:51:59;3.33;;;1.20;;
23390;SDS011;11868;45.606;5.302;2023-04-15T06:54:24;2.63;;;1.20;;
23390;SDS011;11868;45.606;5.302;2023-04-15T06:56:50;2.05;;;1.10;;
23390;SDS011;11868;45.606;5.302;2023-04-15T06:59:16;3.63;;;1.40;;
23390;SDS011;11868;45.606;5.302;2023-04-15T07:01:41;2.33;;;0.90;;
23390;SDS011;11868;45.606;5.302;2023-04-15T07:04:07;2.75;;;1.30;;
23390;SDS011;11868;45.606;5.302;2023-04-15T07:06:32;2.75;;;1.35;;
23390;SDS011;11868;45.606;5.302;2023-04-15T07:08:59;2.88;;;1.20;;
23390;SDS011;11868;45.606;5.302;2023-04-15T07:11:25;2.35;;;1.00;;
23390;SDS011;11868;45.606;5.302;2023-04-15T07:13:51;1.75;;;0.93;;
23390;SDS011;11868;45.606;5.302;2023-04-15T07:16:16;1.83;;;1.00;;
23390;SDS011;11868;45.606;5.302;2023-04-15T07:18:42;2.45;;;0.90;;
23390;SDS011;11868;45.606;5.302;2023-04-15T07:21:07;3.00;;;1.17;;
23390;SDS011;11868;45.606;5.302;2023-04-15T07:23:33;3.30;;;1.00;;
23390;SDS011;11868;45.606;5.302;2023-04-15T07:25:58;6.32;;;0.95;;
23390;SDS011;11868;45.606;5.302;2023-04-15T07:28:24;3.15;;;1.00;;
23390;SDS011;11868;45.606;5.302;2023-04-15T07:30:49;1.25;;;0.90;;
23390;SDS011;11868;45.606;5.302;2023-04-15T07:33:15;2.10;;;0.82;;
23390;SDS011;11868;45.606;5.302;2023-04-15T07:35:40;2.05;;;0.80;;
23390;SDS011;11868;45.606;5.302;2023-04-15T07:38:05;2.22;;;0.90;;
23390;SDS011;11868;45.606;5.302;2023-04-15T07:40:31;1.83;;;0.90;;
23390;SDS011;11868;45.606;5.302;2023-04-15T07:42:57;3.10;;;1.02;;
23390;SDS011;11868;45.606;5.302;2023-04-15T07:45:22;3.28;;;0.90;;
23390;SDS011;11868;45.606;5.302;2023-04-15T07:47:48;4.55;;;1.00;;
23390;SDS011;11868;45.606;5.302;2023-04-15T07:50:14;2.88;;;0.90;;
23390;SDS011;11868;45.606;5.302;2023-04-15T07:52:41;2.20;;;0.90;;
23390;SDS011;11868;45.606;5.302;2023-04-15T07:55:07;1.80;;;1.00;;
23390;SDS011;11868;45.606;5.302;2023-04-15T07:57:33;1.85;;;0.93;;
23390;SDS011;11868;45.606;5.302;2023-04-15T07:59:59;2.15;;;0.80;;
23390;SDS011;11868;45.606;5.302;2023-04-15T08:02:25;1.02;;;0.70;;
23390;SDS011;11868;45.606;5.302;2023-04-15T08:04:50;1.70;;;0.90;;
23390;SDS011;11868;45.606;5.302;2023-04-15T08:07:17;3.40;;;0.88;;
23390;SDS011;11868;45.606;5.302;2023-04-15T08:09:42;1.60;;;0.70;;
23390;SDS011;11868;45.606;5.302;2023-04-15T08:12:08;1.17;;;0.70;;
23390;SDS011;11868;45.606;5.302;2023-04-15T08:14:36;4.05;;;0.90;;
23390;SDS011;11868;45.606;5.302;2023-04-15T08:17:02;1.00;;;0.73;;
23390;SDS011;11868;45.606;5.302;2023-04-15T08:19:28;1.20;;;0.73;;
23390;SDS011;11868;45.606;5.302;2023-04-15T08:21:54;0.90;;;0.70;;
23390;SDS011;11868;45.606;5.302;2023-04-15T08:24:21;0.82;;;0.70;;
23390;SDS011;11868;45.606;5.302;2023-04-15T08:26:46;3.28;;;0.70;;
23390;SDS011;11868;45.606;5.302;2023-04-15T08:29:12;2.05;;;0.98;;
23390;SDS011;11868;45.606;5.302;2023-04-15T08:31:37;1.13;;;0.70;;
23390;SDS011;11868;45.606;5.302;2023-04-15T08:34:03;0.95;;;0.70;;
23390;SDS011;11868;45.606;5.302;2023-04-15T08:36:28;2.60;;;0.90;;
23390;SDS011;11868;45.606;5.302;2023-04-15T08:38:54;1.63;;;0.50;;
23390;SDS011;11868;45.606;5.302;2023-04-15T08:41:21;2.10;;;0.70;;
23390;SDS011;11868;45.606;5.302;2023-04-15T08:43:57;3.78;;;0.73;;
23390;SDS011;11868;45.606;5.302;2023-04-15T08:46:29;2.40;;;0.82;;
23390;SDS011;11868;45.606;5.302;2023-04-15T08:49:02;0.60;;;0.60;;
23390;SDS011;11868;45.606;5.302;2023-04-15T08:51:29;1.58;;;0.60;;
23390;SDS011;11868;45.606;5.302;2023-04-15T08:53:55;1.13;;;0.50;;
23390;SDS011;11868;45.606;5.302;2023-04-15T08:56:23;0.75;;;0.50;;
23390;SDS011;11868;45.606;5.302;2023-04-15T09:01:15;2.53;;;0.70;;
23390;SDS011;11868;45.606;5.302;2023-04-15T09:03:40;2.30;;;0.60;;
23390;SDS011;11868;45.606;5.302;2023-04-15T09:06:06;1.38;;;0.68;;
23390;SDS011;11868;45.606;5.302;2023-04-15T09:08:32;2.45;;;0.70;;
23390;SDS011;11868;45.606;5.302;2023-04-15T09:11:01;1.08;;;0.60;;
23390;SDS011;11868;45.606;5.302;2023-04-15T09:13:29;0.73;;;0.70;;
23390;SDS011;11868;45.606;5.302;2023-04-15T09:15:55;1.55;;;0.70;;
23390;SDS011;11868;45.606;5.302;2023-04-15T09:18:32;1.73;;;0.63;;
23390;SDS011;11868;45.606;5.302;2023-04-15T09:23:32;4.00;;;1.88;;
23390;SDS011;11868;45.606;5.302;2023-04-15T09:25:59;1.65;;;1.20;;
23390;SDS011;11868;45.606;5.302;2023-04-15T09:28:25;2.03;;;0.82;;
23390;SDS011;11868;45.606;5.302;2023-04-15T09:30:57;1.85;;;0.90;;
23390;SDS011;11868;45.606;5.302;2023-04-15T09:33:23;4.07;;;0.75;;
23390;SDS011;11868;45.606;5.302;2023-04-15T09:38:29;0.90;;;0.70;;
23390;SDS011;11868;45.606;5.302;2023-04-15T09:40:55;1.80;;;0.80;;
23390;SDS011;11868;45.606;5.302;2023-04-15T09:43:22;0.95;;;0.80;;
23390;SDS011;11868;45.606;5.302;2023-04-15T09:45:50;2.08;;;0.70;;
23390;SDS011;11868;45.606;5.302;2023-04-15T09:50:45;0.75;;;0.70;;
23390;SDS011;11868;45.606;5.302;2023-04-15T09:53:20;0.77;;;0.60;;
23390;SDS011;11868;45.606;5.302;2023-04-15T09:55:50;1.50;;;1.17;;
23390;SDS011;11868;45.606;5.302;2023-04-15T09:58:18;1.45;;;1.20;;
23390;SDS011;11868;45.606;5.302;2023-04-15T10:00:45;1.20;;;0.82;;
23390;SDS011;11868;45.606;5.302;2023-04-15T10:03:12;1.02;;;0.70;;
23390;SDS011;11868;45.606;5.302;2023-04-15T10:05:40;4.53;;;3.38;;
23390;SDS011;11868;45.606;5.302;2023-04-15T10:08:05;1.55;;;0.77;;
23390;SDS011;11868;45.606;5.302;2023-04-15T10:10:31;0.80;;;0.80;;
23390;SDS011;11868;45.606;5.302;2023-04-15T10:12:58;1.17;;;1.05;;
23390;SDS011;11868;45.606;5.302;2023-04-15T10:15:23;1.90;;;0.70;;
23390;SDS011;11868;45.606;5.302;2023-04-15T10:17:50;2.28;;;0.73;;
23390;SDS011;11868;45.606;5.302;2023-04-15T10:20:17;0.70;;;0.70;;
23390;SDS011;11868;45.606;5.302;2023-04-15T10:22:43;0.75;;;0.70;;
23390;SDS011;11868;45.606;5.302;2023-04-15T10:25:09;2.22;;;0.90;;
23390;SDS011;11868;45.606;5.302;2023-04-15T10:27:35;1.65;;;0.90;;
23390;SDS011;11868;45.606;5.302;2023-04-15T10:30:01;0.85;;;0.60;;
23390;SDS011;11868;45.606;5.302;2023-04-15T10:32:27;1.95;;;0.93;;
23390;SDS011;11868;45.606;5.302;2023-04-15T10:34:53;1.15;;;0.75;;
23390;SDS011;11868;45.606;5.302;2023-04-15T10:37:32;1.17;;;0.80;;
23390;SDS011;11868;45.606;5.302;2023-04-15T10:39:59;2.35;;;0.60;;
23390;SDS011;11868;45.606;5.302;2023-04-15T10:42:26;0.82;;;0.65;;
23390;SDS011;11868;45.606;5.302;2023-04-15T10:44:58;1.95;;;0.70;;
23390;SDS011;11868;45.606;5.302;2023-04-15T10:47:24;3.05;;;0.90;;
23390;SDS011;11868;45.606;5.302;2023-04-15T10:49:50;1.30;;;0.80;;
23390;SDS011;11868;45.606;5.302;2023-04-15T10:52:17;5.47;;;1.08;;
23390;SDS011;11868;45.606;5.302;2023-04-15T10:54:47;1.23;;;0.90;;
23390;SDS011;11868;45.606;5.302;2023-04-15T10:57:14;1.30;;;0.80;;
23390;SDS011;11868;45.606;5.302;2023-04-15T11:02:32;2.30;;;0.90;;
23390;SDS011;11868;45.606;5.302;2023-04-15T11:05:03;3.53;;;0.60;;
23390;SDS011;11868;45.606;5.302;2023-04-15T11:12:50;0.82;;;0.60;;
23390;SDS011;11868;45.606;5.302;2023-04-15T11:18:14;1.02;;;0.73;;
23390;SDS011;11868;45.606;5.302;2023-04-15T11:20:47;1.25;;;0.70;;
23390;SDS011;11868;45.606;5.302;2023-04-15T11:23:14;1.08;;;0.60;;
23390;SDS011;11868;45.606;5.302;2023-04-15T11:25:41;0.55;;;0.55;;
23390;SDS011;11868;45.606;5.302;2023-04-15T11:28:07;0.60;;;0.60;;
23390;SDS011;11868;45.606;5.302;2023-04-15T11:30:33;0.60;;;0.60;;
23390;SDS011;11868;45.606;5.302;2023-04-15T11:33:00;0.50;;;0.50;;
23390;SDS011;11868;45.606;5.302;2023-04-15T11:35:30;1.38;;;0.80;;
23390;SDS011;11868;45.606;5.302;2023-04-15T11:37:55;1.85;;;0.60;;
23390;SDS011;11868;45.606;5.302;2023-04-15T11:40:22;0.60;;;0.60;;
23390;SDS011;11868;45.606;5.302;2023-04-15T11:43:07;0.50;;;0.43;;
23390;SDS011;11868;45.606;5.302;2023-04-15T11:45:37;0.88;;;0.60;;
23390;SDS011;11868;45.606;5.302;2023-04-15T11:48:13;3.17;;;0.95;;
23390;SDS011;11868;45.606;5.302;2023-04-15T11:50:38;1.17;;;0.70;;
23390;SDS011;11868;45.606;5.302;2023-04-15T11:53:05;1.23;;;0.63;;
23390;SDS011;11868;45.606;5.302;2023-04-15T11:55:40;1.00;;;0.50;;
23390;SDS011;11868;45.606;5.302;2023-04-15T11:58:14;0.70;;;0.70;;
23390;SDS011;11868;45.606;5.302;2023-04-15T12:00:45;0.50;;;0.50;;
23390;SDS011;11868;45.606;5.302;2023-04-15T12:03:12;0.80;;;0.55;;
23390;SDS011;11868;45.606;5.302;2023-04-15T12:08:57;0.80;;;0.50;;
23390;SDS011;11868;45.606;5.302;2023-04-15T12:11:58;0.40;;;0.40;;
23390;SDS011;11868;45.606;5.302;2023-04-15T12:14:24;0.40;;;0.40;;
23390;SDS011;11868;45.606;5.302;2023-04-15T12:16:51;0.40;;;0.40;;
23390;SDS011;11868;45.606;5.302;2023-04-15T12:19:27;0.40;;;0.40;;
23390;SDS011;11868;45.606;5.302;2023-04-15T12:21:57;1.80;;;0.60;;
23390;SDS011;11868;45.606;5.302;2023-04-15T12:24:24;0.40;;;0.40;;
23390;SDS011;11868;45.606;5.302;2023-04-15T12:26:54;0.60;;;0.60;;
23390;SDS011;11868;45.606;5.302;2023-04-15T12:29:26;0.65;;;0.45;;
23390;SDS011;11868;45.606;5.302;2023-04-15T12:31:54;0.88;;;0.60;;
23390;SDS011;11868;45.606;5.302;2023-04-15T12:34:31;0.50;;;0.50;;
23390;SDS011;11868;45.606;5.302;2023-04-15T12:36:58;1.08;;;0.50;;
23390;SDS011;11868;45.606;5.302;2023-04-15T12:39:25;0.80;;;0.80;;
23390;SDS011;11868;45.606;5.302;2023-04-15T12:41:51;0.65;;;0.40;;
23390;SDS011;11868;45.606;5.302;2023-04-15T12:44:17;2.03;;;0.70;;
23390;SDS011;11868;45.606;5.302;2023-04-15T12:46:42;0.50;;;0.50;;
23390;SDS011;11868;45.606;5.302;2023-04-15T12:49:08;1.85;;;0.60;;
23390;SDS011;11868;45.606;5.302;2023-04-15T12:51:33;2.58;;;0.50;;
23390;SDS011;11868;45.606;5.302;2023-04-15T12:53:59;0.80;;;0.50;;
23390;SDS011;11868;45.606;5.302;2023-04-15T12:56:24;0.40;;;0.40;;
23390;SDS011;11868;45.606;5.302;2023-04-15T12:58:49;0.70;;;0.50;;
23390;SDS011;11868;45.606;5.302;2023-04-15T13:01:15;0.50;;;0.50;;
23390;SDS011;11868;45.606;5.302;2023-04-15T13:03:41;0.43;;;0.43;;
23390;SDS011;11868;45.606;5.302;2023-04-15T13:06:06;1.27;;;0.43;;
23390;SDS011;11868;45.606;5.302;2023-04-15T13:08:32;2.30;;;0.57;;
23390;SDS011;11868;45.606;5.302;2023-04-15T13:10:57;0.50;;;0.50;;
23390;SDS011;11868;45.606;5.302;2023-04-15T13:13:23;0.57;;;0.57;;
23390;SDS011;11868;45.606;5.302;2023-04-15T13:15:48;0.32;;;0.32;;
23390;SDS011;11868;45.606;5.302;2023-04-15T13:18:13;0.30;;;0.30;;
23390;SDS011;11868;45.606;5.302;2023-04-15T13:20:39;1.00;;;0.60;;
23390;SDS011;11868;45.606;5.302;2023-04-15T13:23:05;1.02;;;0.50;;
23390;SDS011;11868;45.606;5.302;2023-04-15T13:25:31;0.70;;;0.50;;
23390;SDS011;11868;45.606;5.302;2023-04-15T13:27:56;0.50;;;0.50;;
23390;SDS011;11868;45.606;5.302;2023-04-15T13:30:21;0.50;;;0.50;;
23390;SDS011;11868;45.606;5.302;2023-04-15T13:32:47;0.60;;;0.50;;
23390;SDS011;11868;45.606;5.302;2023-04-15T13:35:13;0.50;;;0.50;;
23390;SDS011;11868;45.606;5.302;2023-04-15T13:37:38;1.08;;;0.50;;
23390;SDS011;11868;45.606;5.302;2023-04-15T13:40:05;0.55;;;0.55;;
23390;SDS011;11868;45.606;5.302;2023-04-15T13:42:31;0.50;;;0.50;;
23390;SDS011;11868;45.606;5.302;2023-04-15T13:44:57;0.60;;;0.45;;
23390;SDS011;11868;45.606;5.302;2023-04-15T13:47:22;0.65;;;0.45;;
23390;SDS011;11868;45.606;5.302;2023-04-15T13:49:47;0.50;;;0.50;;
23390;SDS011;11868;45.606;5.302;2023-04-15T13:52:13;0.50;;;0.50;;
23390;SDS011;11868;45.606;5.302;2023-04-15T13:54:38;0.50;;;0.50;;
23390;SDS011;11868;45.606;5.302;2023-04-15T13:57:04;0.85;;;0.77;;
23390;SDS011;11868;45.606;5.302;2023-04-15T13:59:30;1.02;;;0.60;;
23390;SDS011;11868;45.606;5.302;2023-04-15T14:01:55;2.55;;;0.60;;
23390;SDS011;11868;45.606;5.302;2023-04-15T14:04:21;0.85;;;0.52;;
23390;SDS011;11868;45.606;5.302;2023-04-15T14:06:46;0.70;;;0.60;;
23390;SDS011;11868;45.606;5.302;2023-04-15T14:09:11;0.60;;;0.50;;
23390;SDS011;11868;45.606;5.302;2023-04-15T14:11:37;0.50;;;0.50;;
23390;SDS011;11868;45.606;5.302;2023-04-15T14:14:03;0.75;;;0.68;;
23390;SDS011;11868;45.606;5.302;2023-04-15T14:16:29;0.45;;;0.45;;
23390;SDS011;11868;45.606;5.302;2023-04-15T14:18:57;0.50;;;0.50;;
23390;SDS011;11868;45.606;5.302;2023-04-15T14:21:22;0.45;;;0.40;;
23390;SDS011;11868;45.606;5.302;2023-04-15T14:23:48;0.50;;;0.50;;
23390;SDS011;11868;45.606;5.302;2023-04-15T14:26:13;0.50;;;0.50;;
23390;SDS011;11868;45.606;5.302;2023-04-15T14:28:38;0.50;;;0.50;;
23390;SDS011;11868;45.606;5.302;2023-04-15T14:31:04;1.48;;;0.93;;
23390;SDS011;11868;45.606;5.302;2023-04-15T14:33:30;0.60;;;0.60;;
23390;SDS011;11868;45.606;5.302;2023-04-15T14:35:56;0.60;;;0.60;;
23390;SDS011;11868;45.606;5.302;2023-04-15T14:38:21;2.85;;;0.80;;
23390;SDS011;11868;45.606;5.302;2023-04-15T14:40:47;7.18;;;0.80;;
23390;SDS011;11868;45.606;5.302;2023-04-15T14:43:12;1.92;;;0.80;;
23390;SDS011;11868;45.606;5.302;2023-04-15T14:45:38;0.73;;;0.60;;
23390;SDS011;11868;45.606;5.302;2023-04-15T14:48:03;0.68;;;0.60;;
23390;SDS011;11868;45.606;5.302;2023-04-15T14:50:30;0.60;;;0.60;;
23390;SDS011;11868;45.606;5.302;2023-04-15T14:52:55;1.40;;;0.50;;
23390;SDS011;11868;45.606;5.302;2023-04-15T14:55:21;1.13;;;0.70;;
23390;SDS011;11868;45.606;5.302;2023-04-15T14:57:46;1.27;;;0.60;;
23390;SDS011;11868;45.606;5.302;2023-04-15T15:00:12;0.80;;;0.80;;
23390;SDS011;11868;45.606;5.302;2023-04-15T15:02:38;0.63;;;0.63;;
23390;SDS011;11868;45.606;5.302;2023-04-15T15:05:03;0.95;;;0.60;;
23390;SDS011;11868;45.606;5.302;2023-04-15T15:07:29;1.15;;;0.60;;
23390;SDS011;11868;45.606;5.302;2023-04-15T15:09:54;0.68;;;0.68;;